Time,TemperatureF,DewpointF,PressureIn,WindDirection,WindDirectionDegrees,WindSpeedMPH,WindSpeedGustMPH,Humidity,HourlyPrecipIn,Conditions,Clouds,dailyrainin,SoftwareType,DateUTC
2013-09-07 02:00:00,71.0,-99.9,-100.00,WNW,301,3.0,7.0,-999,-99.99,,,-99.99,,2013-09-07 08:00:00,
2013-09-07 02:53:00,71.0,-99.9,-100.00,WNW,301,3.0,7.0,-999,-99.99,,,-99.99,,2013-09-07 08:53:00,
2013-09-07 03:00:00,68.0,-99.9,-100.00,West,270,3.0,5.0,-999,-99.99,,,-99.99,,2013-09-07 09:00:00,
2013-09-07 03:52:00,68.0,-99.9,-100.00,West,270,3.0,5.0,-999,-99.99,,,-99.99,,2013-09-07 09:52:00,
2013-09-07 04:00:00,66.0,-99.9,-100.00,NW,307,5.0,6.0,-999,-99.99,,,-99.99,,2013-09-07 10:00:00,
2013-09-07 04:52:00,66.0,-99.9,-100.00,NW,307,5.0,6.0,-999,-99.99,,,-99.99,,2013-09-07 10:52:00,
2013-09-07 05:00:00,66.0,-99.9,-100.00,WSW,247,3.0,3.0,-999,-99.99,,,-99.99,,2013-09-07 11:00:00,
2013-09-07 05:53:00,66.0,-99.9,-100.00,WSW,247,3.0,3.0,-999,-99.99,,,-99.99,,2013-09-07 11:53:00,
2013-09-07 06:00:00,64.0,-99.9,-100.00,NNE,29,14.0,17.0,-999,-99.99,,,-99.99,,2013-09-07 12:00:00,
2013-09-07 06:52:00,64.0,-99.9,-100.00,NNE,29,14.0,17.0,-999,-99.99,,,-99.99,,2013-09-07 12:52:00,
2013-09-07 07:00:00,68.0,-99.9,-100.00,West,262,3.0,5.0,-999,-99.99,,,-99.99,,2013-09-07 13:00:00,
2013-09-07 07:52:00,68.0,-99.9,-100.00,West,262,3.0,5.0,-999,-99.99,,,-99.99,,2013-09-07 13:52:00,
2013-09-07 08:00:00,69.0,-99.9,-100.00,WSW,243,1.0,9.0,-999,-99.99,,,-99.99,,2013-09-07 14:00:00,
2013-09-07 08:53:00,69.0,-99.9,-100.00,WSW,243,1.0,9.0,-999,-99.99,,,-99.99,,2013-09-07 14:53:00,
2013-09-07 09:00:00,77.0,-99.9,-100.00,SE,131,6.0,7.0,-999,-99.99,,,-99.99,,2013-09-07 15:00:00,
2013-09-07 09:54:00,77.0,-99.9,-100.00,SE,131,6.0,7.0,-999,-99.99,,,-99.99,,2013-09-07 15:54:00,
2013-09-07 10:00:00,84.0,-99.9,-100.00,ESE,113,7.0,13.0,-999,-99.99,,,-99.99,,2013-09-07 16:00:00,
2013-09-07 10:53:00,84.0,-99.9,-100.00,ESE,113,7.0,13.0,-999,-99.99,,,-99.99,,2013-09-07 16:53:00,
2013-09-07 11:00:00,89.0,-99.9,-100.00,East,96,16.0,20.0,-999,-99.99,,,-99.99,,2013-09-07 17:00:00,
2013-09-07 11:52:00,89.0,-99.9,-100.00,East,96,16.0,20.0,-999,-99.99,,,-99.99,,2013-09-07 17:52:00,
2013-09-07 12:00:00,91.0,-99.9,-100.00,ESE,104,17.0,20.0,-999,-99.99,,,-99.99,,2013-09-07 18:00:00,
2013-09-07 12:52:00,91.0,-99.9,-100.00,ESE,104,17.0,20.0,-999,-99.99,,,-99.99,,2013-09-07 18:52:00,
2013-09-07 13:00:00,95.0,-99.9,-100.00,SE,131,13.0,16.0,-999,-99.99,,,-99.99,,2013-09-07 19:00:00,
2013-09-07 13:53:00,95.0,-99.9,-100.00,SE,131,13.0,16.0,-999,-99.99,,,-99.99,,2013-09-07 19:53:00,
2013-09-07 14:00:00,98.0,-99.9,-100.00,SSE,168,12.0,16.0,-999,-99.99,,,-99.99,,2013-09-07 20:00:00,
2013-09-07 14:53:00,98.0,-99.9,-100.00,SSE,168,12.0,16.0,-999,-99.99,,,-99.99,,2013-09-07 20:53:00,
2013-09-07 15:00:00,100.0,-99.9,-100.00,SSW,198,11.0,16.0,-999,-99.99,,,-99.99,,2013-09-07 21:00:00,
2013-09-07 15:54:00,100.0,-99.9,-100.00,SSW,198,11.0,16.0,-999,-99.99,,,-99.99,,2013-09-07 21:54:00,
2013-09-07 16:00:00,100.0,-99.9,-100.00,SW,215,7.0,11.0,-999,-99.99,,,-99.99,,2013-09-07 22:00:00,
2013-09-07 16:53:00,100.0,-99.9,-100.00,SW,215,7.0,11.0,-999,-99.99,,,-99.99,,2013-09-07 22:53:00,
2013-09-07 17:00:00,98.0,-99.9,-100.00,SSW,211,8.0,9.0,-999,-99.99,,,-99.99,,2013-09-07 23:00:00,
2013-09-07 17:53:00,98.0,-99.9,-100.00,SSW,211,8.0,9.0,-999,-99.99,,,-99.99,,2013-09-07 23:53:00,
2013-09-07 18:00:00,96.0,-99.9,-100.00,South,180,2.0,6.0,-999,-99.99,,,-99.99,,2013-09-08 00:00:00,
2013-09-07 18:52:00,96.0,-99.9,-100.00,South,180,2.0,6.0,-999,-99.99,,,-99.99,,2013-09-08 00:52:00,
2013-09-07 19:00:00,93.0,-99.9,-100.00,ENE,78,5.0,5.0,-999,-99.99,,,-99.99,,2013-09-08 01:00:00,
2013-09-07 19:52:00,93.0,-99.9,-100.00,ENE,78,5.0,5.0,-999,-99.99,,,-99.99,,2013-09-08 01:52:00,
2013-09-07 20:00:00,86.0,-99.9,-100.00,East,91,3.0,4.0,-999,-99.99,,,-99.99,,2013-09-08 02:00:00,
2013-09-07 20:52:00,86.0,-99.9,-100.00,East,91,3.0,4.0,-999,-99.99,,,-99.99,,2013-09-08 02:52:00,
2013-09-07 21:00:00,-999.0,-99.9,-100.00,East,90,8.0,8.0,-999,-99.99,,,-99.99,,2013-09-08 03:00:00,
2013-09-07 21:54:00,78.0,-99.9,-100.00,East,90,8.0,8.0,-999,-99.99,,,-99.99,,2013-09-08 03:54:00,
2013-09-07 22:00:00,75.0,-99.9,-100.00,East,91,9.0,11.0,-999,-99.99,,,-99.99,,2013-09-08 04:00:00,
2013-09-07 22:54:00,75.0,-99.9,-100.00,East,91,9.0,11.0,-999,-99.99,,,-99.99,,2013-09-08 04:54:00,
2013-09-07 23:00:00,73.0,-99.9,-100.00,East,82,8.0,12.0,-999,-99.99,,,-99.99,,2013-09-08 05:00:00,
2013-09-07 23:52:00,73.0,-99.9,-100.00,East,82,8.0,12.0,-999,-99.99,,,-99.99,,2013-09-08 05:52:00,